sensor_id;sensor_type;location;lat;lon;timestamp;P1;durP1;ratioP1;P2;durP2;ratioP2
68188;SDS011;66299;47.514;19.218;2023-03-16T00:01:08;13.52;;;4.72;;
68188;SDS011;66299;47.514;19.218;2023-03-16T00:03:39;13.45;;;4.53;;
68188;SDS011;66299;47.514;19.218;2023-03-16T00:06:08;11.45;;;4.50;;
68188;SDS011;66299;47.514;19.218;2023-03-16T00:08:36;12.98;;;4.70;;
68188;SDS011;66299;47.514;19.218;2023-03-16T00:11:04;12.75;;;4.53;;
68188;SDS011;66299;47.514;19.218;2023-03-16T00:13:33;13.38;;;5.00;;
68188;SDS011;66299;47.514;19.218;2023-03-16T00:16:01;13.23;;;4.47;;
68188;SDS011;66299;47.514;19.218;2023-03-16T00:18:32;13.63;;;4.70;;
68188;SDS011;66299;47.514;19.218;2023-03-16T00:21:04;11.38;;;4.38;;
68188;SDS011;66299;47.514;19.218;2023-03-16T00:23:34;13.63;;;4.57;;
68188;SDS011;66299;47.514;19.218;2023-03-16T00:26:04;12.43;;;4.53;;
68188;SDS011;66299;47.514;19.218;2023-03-16T00:28:35;11.00;;;4.13;;
68188;SDS011;66299;47.514;19.218;2023-03-16T00:31:05;11.15;;;4.13;;
68188;SDS011;66299;47.514;19.218;2023-03-16T00:33:36;13.63;;;4.30;;
68188;SDS011;66299;47.514;19.218;2023-03-16T00:36:06;12.63;;;4.20;;
68188;SDS011;66299;47.514;19.218;2023-03-16T00:38:40;12.43;;;4.32;;
68188;SDS011;66299;47.514;19.218;2023-03-16T00:41:11;12.43;;;4.20;;
68188;SDS011;66299;47.514;19.218;2023-03-16T00:43:43;13.68;;;4.80;;
68188;SDS011;66299;47.514;19.218;2023-03-16T00:46:12;13.05;;;4.53;;
68188;SDS011;66299;47.514;19.218;2023-03-16T00:48:44;14.05;;;4.60;;
68188;SDS011;66299;47.514;19.218;2023-03-16T00:51:14;14.75;;;5.20;;
68188;SDS011;66299;47.514;19.218;2023-03-16T00:53:44;13.43;;;4.80;;
68188;SDS011;66299;47.514;19.218;2023-03-16T00:56:14;13.52;;;4.80;;
68188;SDS011;66299;47.514;19.218;2023-03-16T00:58:44;16.02;;;5.60;;
68188;SDS011;66299;47.514;19.218;2023-03-16T01:01:14;14.57;;;5.38;;
68188;SDS011;66299;47.514;19.218;2023-03-16T01:03:46;13.60;;;5.35;;
68188;SDS011;66299;47.514;19.218;2023-03-16T01:06:15;13.95;;;6.53;;
68188;SDS011;66299;47.514;19.218;2023-03-16T01:08:46;19.80;;;5.85;;
68188;SDS011;66299;47.514;19.218;2023-03-16T01:11:20;14.48;;;5.70;;
68188;SDS011;66299;47.514;19.218;2023-03-16T01:13:50;17.42;;;5.97;;
68188;SDS011;66299;47.514;19.218;2023-03-16T01:16:20;14.85;;;5.70;;
68188;SDS011;66299;47.514;19.218;2023-03-16T01:18:50;14.75;;;5.53;;
68188;SDS011;66299;47.514;19.218;2023-03-16T01:21:19;15.35;;;5.88;;
68188;SDS011;66299;47.514;19.218;2023-03-16T01:23:49;13.07;;;5.53;;
68188;SDS011;66299;47.514;19.218;2023-03-16T01:26:20;15.82;;;5.95;;
68188;SDS011;66299;47.514;19.218;2023-03-16T01:28:50;16.60;;;6.40;;
68188;SDS011;66299;47.514;19.218;2023-03-16T01:31:20;15.88;;;5.80;;
68188;SDS011;66299;47.514;19.218;2023-03-16T01:33:48;16.73;;;6.10;;
68188;SDS011;66299;47.514;19.218;2023-03-16T01:36:20;16.25;;;6.50;;
68188;SDS011;66299;47.514;19.218;2023-03-16T01:38:48;18.35;;;6.22;;
68188;SDS011;66299;47.514;19.218;2023-03-16T01:41:22;15.35;;;6.10;;
68188;SDS011;66299;47.514;19.218;2023-03-16T01:43:51;13.75;;;6.05;;
68188;SDS011;66299;47.514;19.218;2023-03-16T01:46:24;15.43;;;5.70;;
68188;SDS011;66299;47.514;19.218;2023-03-16T01:48:59;18.45;;;6.60;;
68188;SDS011;66299;47.514;19.218;2023-03-16T01:51:34;16.67;;;6.53;;
68188;SDS011;66299;47.514;19.218;2023-03-16T01:54:10;14.50;;;5.90;;
68188;SDS011;66299;47.514;19.218;2023-03-16T01:56:44;15.18;;;6.40;;
68188;SDS011;66299;47.514;19.218;2023-03-16T01:59:21;16.75;;;6.10;;
68188;SDS011;66299;47.514;19.218;2023-03-16T02:01:52;14.82;;;6.20;;
68188;SDS011;66299;47.514;19.218;2023-03-16T02:04:28;18.30;;;6.28;;
68188;SDS011;66299;47.514;19.218;2023-03-16T02:07:04;16.10;;;6.45;;
68188;SDS011;66299;47.514;19.218;2023-03-16T02:09:36;16.75;;;5.85;;
68188;SDS011;66299;47.514;19.218;2023-03-16T02:12:09;18.60;;;6.30;;
68188;SDS011;66299;47.514;19.218;2023-03-16T02:14:44;18.27;;;6.30;;
68188;SDS011;66299;47.514;19.218;2023-03-16T02:17:14;14.68;;;5.80;;
68188;SDS011;66299;47.514;19.218;2023-03-16T02:19:48;15.40;;;5.95;;
68188;SDS011;66299;47.514;19.218;2023-03-16T02:22:23;16.80;;;6.40;;
68188;SDS011;66299;47.514;19.218;2023-03-16T02:24:54;16.65;;;6.40;;
68188;SDS011;66299;47.514;19.218;2023-03-16T02:27:24;18.25;;;6.22;;
68188;SDS011;66299;47.514;19.218;2023-03-16T02:30:08;19.10;;;6.55;;
68188;SDS011;66299;47.514;19.218;2023-03-16T02:32:39;15.20;;;6.38;;
68188;SDS011;66299;47.514;19.218;2023-03-16T02:35:09;19.67;;;6.93;;
68188;SDS011;66299;47.514;19.218;2023-03-16T02:37:38;15.30;;;6.32;;
68188;SDS011;66299;47.514;19.218;2023-03-16T02:40:18;16.30;;;6.88;;
68188;SDS011;66299;47.514;19.218;2023-03-16T02:42:50;17.63;;;7.03;;
68188;SDS011;66299;47.514;19.218;2023-03-16T02:45:25;18.75;;;6.93;;
68188;SDS011;66299;47.514;19.218;2023-03-16T02:47:59;17.00;;;7.07;;
68188;SDS011;66299;47.514;19.218;2023-03-16T02:50:32;19.77;;;7.00;;
68188;SDS011;66299;47.514;19.218;2023-03-16T02:53:00;16.05;;;6.95;;
68188;SDS011;66299;47.514;19.218;2023-03-16T02:55:29;17.08;;;7.22;;
68188;SDS011;66299;47.514;19.218;2023-03-16T02:57:58;15.13;;;7.15;;
68188;SDS011;66299;47.514;19.218;2023-03-16T03:00:28;16.95;;;7.30;;
68188;SDS011;66299;47.514;19.218;2023-03-16T03:02:56;15.48;;;7.10;;
68188;SDS011;66299;47.514;19.218;2023-03-16T03:05:25;15.73;;;6.95;;
68188;SDS011;66299;47.514;19.218;2023-03-16T03:07:53;16.38;;;7.30;;
68188;SDS011;66299;47.514;19.218;2023-03-16T03:10:22;20.35;;;7.90;;
68188;SDS011;66299;47.514;19.218;2023-03-16T03:12:50;18.83;;;8.18;;
68188;SDS011;66299;47.514;19.218;2023-03-16T03:15:19;18.55;;;7.82;;
68188;SDS011;66299;47.514;19.218;2023-03-16T03:17:48;18.23;;;8.38;;
68188;SDS011;66299;47.514;19.218;2023-03-16T03:20:19;22.83;;;8.88;;
68188;SDS011;66299;47.514;19.218;2023-03-16T03:22:48;16.92;;;8.13;;
68188;SDS011;66299;47.514;19.218;2023-03-16T03:25:19;19.63;;;8.68;;
68188;SDS011;66299;47.514;19.218;2023-03-16T03:27:49;18.77;;;8.40;;
68188;SDS011;66299;47.514;19.218;2023-03-16T03:30:20;19.42;;;8.43;;
68188;SDS011;66299;47.514;19.218;2023-03-16T03:32:51;21.95;;;8.52;;
68188;SDS011;66299;47.514;19.218;2023-03-16T03:35:20;18.67;;;8.52;;
68188;SDS011;66299;47.514;19.218;2023-03-16T03:37:49;18.00;;;8.23;;
68188;SDS011;66299;47.514;19.218;2023-03-16T03:40:18;17.80;;;8.48;;
68188;SDS011;66299;47.514;19.218;2023-03-16T03:42:47;20.02;;;8.73;;
68188;SDS011;66299;47.514;19.218;2023-03-16T03:45:15;20.92;;;8.90;;
68188;SDS011;66299;47.514;19.218;2023-03-16T03:47:44;20.38;;;9.35;;
68188;SDS011;66299;47.514;19.218;2023-03-16T03:50:14;32.30;;;16.60;;
68188;SDS011;66299;47.514;19.218;2023-03-16T03:52:43;31.60;;;18.85;;
68188;SDS011;66299;47.514;19.218;2023-03-16T03:55:11;34.08;;;18.98;;
68188;SDS011;66299;47.514;19.218;2023-03-16T03:57:40;33.30;;;16.13;;
68188;SDS011;66299;47.514;19.218;2023-03-16T04:00:09;22.52;;;11.20;;
68188;SDS011;66299;47.514;19.218;2023-03-16T04:02:39;19.65;;;8.55;;
68188;SDS011;66299;47.514;19.218;2023-03-16T04:05:08;22.58;;;8.75;;
68188;SDS011;66299;47.514;19.218;2023-03-16T04:07:41;26.48;;;8.93;;
68188;SDS011;66299;47.514;19.218;2023-03-16T04:10:12;20.50;;;8.50;;
68188;SDS011;66299;47.514;19.218;2023-03-16T04:15:10;21.55;;;8.43;;
68188;SDS011;66299;47.514;19.218;2023-03-16T04:17:39;18.10;;;8.50;;
68188;SDS011;66299;47.514;19.218;2023-03-16T04:20:08;20.42;;;8.50;;
68188;SDS011;66299;47.514;19.218;2023-03-16T04:22:42;18.33;;;8.65;;
68188;SDS011;66299;47.514;19.218;2023-03-16T04:25:11;21.30;;;8.52;;
68188;SDS011;66299;47.514;19.218;2023-03-16T04:27:42;20.95;;;9.48;;
68188;SDS011;66299;47.514;19.218;2023-03-16T04:30:13;22.67;;;9.57;;
68188;SDS011;66299;47.514;19.218;2023-03-16T04:32:41;19.88;;;9.23;;
68188;SDS011;66299;47.514;19.218;2023-03-16T04:35:10;18.73;;;8.95;;
68188;SDS011;66299;47.514;19.218;2023-03-16T04:37:38;21.38;;;9.68;;
68188;SDS011;66299;47.514;19.218;2023-03-16T04:40:09;24.73;;;10.00;;
68188;SDS011;66299;47.514;19.218;2023-03-16T04:42:42;24.13;;;10.32;;
68188;SDS011;66299;47.514;19.218;2023-03-16T04:45:11;23.00;;;9.93;;
68188;SDS011;66299;47.514;19.218;2023-03-16T04:47:41;23.20;;;10.27;;
68188;SDS011;66299;47.514;19.218;2023-03-16T04:50:10;23.38;;;10.43;;
68188;SDS011;66299;47.514;19.218;2023-03-16T04:52:39;24.80;;;10.75;;
68188;SDS011;66299;47.514;19.218;2023-03-16T04:55:11;24.05;;;10.48;;
68188;SDS011;66299;47.514;19.218;2023-03-16T04:57:40;22.20;;;11.10;;
68188;SDS011;66299;47.514;19.218;2023-03-16T05:00:09;23.17;;;10.63;;
68188;SDS011;66299;47.514;19.218;2023-03-16T05:02:44;22.55;;;10.85;;
68188;SDS011;66299;47.514;19.218;2023-03-16T05:05:14;23.27;;;11.32;;
68188;SDS011;66299;47.514;19.218;2023-03-16T05:07:43;23.02;;;10.63;;
68188;SDS011;66299;47.514;19.218;2023-03-16T05:12:45;24.85;;;11.63;;
68188;SDS011;66299;47.514;19.218;2023-03-16T05:15:13;23.20;;;11.10;;
68188;SDS011;66299;47.514;19.218;2023-03-16T05:17:43;27.90;;;11.95;;
68188;SDS011;66299;47.514;19.218;2023-03-16T05:20:12;25.00;;;11.48;;
68188;SDS011;66299;47.514;19.218;2023-03-16T05:22:43;27.00;;;11.88;;
68188;SDS011;66299;47.514;19.218;2023-03-16T05:25:16;27.33;;;12.00;;
68188;SDS011;66299;47.514;19.218;2023-03-16T05:27:46;24.17;;;11.65;;
68188;SDS011;66299;47.514;19.218;2023-03-16T05:30:17;28.83;;;11.70;;
68188;SDS011;66299;47.514;19.218;2023-03-16T05:32:47;24.98;;;11.23;;
68188;SDS011;66299;47.514;19.218;2023-03-16T05:35:17;23.65;;;12.20;;
68188;SDS011;66299;47.514;19.218;2023-03-16T05:37:47;28.63;;;13.50;;
68188;SDS011;66299;47.514;19.218;2023-03-16T05:40:18;30.92;;;13.75;;
68188;SDS011;66299;47.514;19.218;2023-03-16T05:42:52;25.38;;;13.27;;
68188;SDS011;66299;47.514;19.218;2023-03-16T05:45:23;28.08;;;13.07;;
68188;SDS011;66299;47.514;19.218;2023-03-16T05:47:51;26.83;;;12.52;;
68188;SDS011;66299;47.514;19.218;2023-03-16T05:50:20;24.73;;;12.30;;
68188;SDS011;66299;47.514;19.218;2023-03-16T05:52:49;22.67;;;12.18;;
68188;SDS011;66299;47.514;19.218;2023-03-16T05:55:19;25.75;;;11.80;;
68188;SDS011;66299;47.514;19.218;2023-03-16T05:57:48;26.73;;;11.98;;
68188;SDS011;66299;47.514;19.218;2023-03-16T06:00:17;26.33;;;11.45;;
68188;SDS011;66299;47.514;19.218;2023-03-16T06:02:48;24.63;;;11.65;;
68188;SDS011;66299;47.514;19.218;2023-03-16T06:05:18;26.53;;;11.53;;
68188;SDS011;66299;47.514;19.218;2023-03-16T06:07:50;28.40;;;11.55;;
68188;SDS011;66299;47.514;19.218;2023-03-16T06:10:21;22.88;;;10.20;;
68188;SDS011;66299;47.514;19.218;2023-03-16T06:12:49;22.23;;;10.95;;
68188;SDS011;66299;47.514;19.218;2023-03-16T06:15:18;22.58;;;10.52;;
68188;SDS011;66299;47.514;19.218;2023-03-16T06:17:51;23.88;;;10.45;;
68188;SDS011;66299;47.514;19.218;2023-03-16T06:20:21;19.42;;;9.48;;
68188;SDS011;66299;47.514;19.218;2023-03-16T06:22:49;21.88;;;10.60;;
68188;SDS011;66299;47.514;19.218;2023-03-16T06:25:21;20.80;;;10.00;;
68188;SDS011;66299;47.514;19.218;2023-03-16T06:27:50;25.98;;;10.85;;
68188;SDS011;66299;47.514;19.218;2023-03-16T06:30:22;22.33;;;10.23;;
68188;SDS011;66299;47.514;19.218;2023-03-16T06:32:52;20.65;;;10.35;;
68188;SDS011;66299;47.514;19.218;2023-03-16T06:35:21;23.52;;;9.35;;
68188;SDS011;66299;47.514;19.218;2023-03-16T06:37:51;23.70;;;9.18;;
68188;SDS011;66299;47.514;19.218;2023-03-16T06:42:54;20.60;;;9.43;;
68188;SDS011;66299;47.514;19.218;2023-03-16T06:45:26;20.38;;;9.15;;
68188;SDS011;66299;47.514;19.218;2023-03-16T06:47:56;23.13;;;8.68;;
68188;SDS011;66299;47.514;19.218;2023-03-16T06:50:26;21.35;;;8.75;;
68188;SDS011;66299;47.514;19.218;2023-03-16T06:52:56;18.63;;;8.88;;
68188;SDS011;66299;47.514;19.218;2023-03-16T06:55:28;19.30;;;8.55;;
68188;SDS011;66299;47.514;19.218;2023-03-16T06:58:00;21.58;;;7.43;;
68188;SDS011;66299;47.514;19.218;2023-03-16T07:00:29;16.48;;;7.68;;
68188;SDS011;66299;47.514;19.218;2023-03-16T07:02:59;18.83;;;7.15;;
68188;SDS011;66299;47.514;19.218;2023-03-16T07:05:29;19.48;;;7.82;;
68188;SDS011;66299;47.514;19.218;2023-03-16T07:07:57;16.23;;;7.13;;
68188;SDS011;66299;47.514;19.218;2023-03-16T07:10:27;17.73;;;7.47;;
68188;SDS011;66299;47.514;19.218;2023-03-16T07:12:56;19.67;;;8.20;;
68188;SDS011;66299;47.514;19.218;2023-03-16T07:15:25;18.80;;;7.65;;
68188;SDS011;66299;47.514;19.218;2023-03-16T07:17:54;16.15;;;7.18;;
68188;SDS011;66299;47.514;19.218;2023-03-16T07:20:24;19.05;;;7.93;;
68188;SDS011;66299;47.514;19.218;2023-03-16T07:22:55;19.23;;;7.07;;
68188;SDS011;66299;47.514;19.218;2023-03-16T07:25:26;22.85;;;7.43;;
68188;SDS011;66299;47.514;19.218;2023-03-16T07:30:26;16.10;;;6.35;;
68188;SDS011;66299;47.514;19.218;2023-03-16T07:32:56;15.68;;;6.32;;
68188;SDS011;66299;47.514;19.218;2023-03-16T07:35:24;15.10;;;6.00;;
68188;SDS011;66299;47.514;19.218;2023-03-16T07:37:53;14.07;;;4.88;;
68188;SDS011;66299;47.514;19.218;2023-03-16T07:40:23;13.82;;;4.97;;
68188;SDS011;66299;47.514;19.218;2023-03-16T07:42:56;15.18;;;5.20;;
68188;SDS011;66299;47.514;19.218;2023-03-16T07:45:26;13.90;;;5.20;;
68188;SDS011;66299;47.514;19.218;2023-03-16T07:47:55;12.90;;;5.18;;
68188;SDS011;66299;47.514;19.218;2023-03-16T07:50:25;12.52;;;4.80;;
68188;SDS011;66299;47.514;19.218;2023-03-16T07:52:54;12.98;;;5.28;;
68188;SDS011;66299;47.514;19.218;2023-03-16T07:55:22;13.98;;;5.20;;
68188;SDS011;66299;47.514;19.218;2023-03-16T07:57:53;12.02;;;5.05;;
68188;SDS011;66299;47.514;19.218;2023-03-16T08:00:22;13.73;;;5.70;;
68188;SDS011;66299;47.514;19.218;2023-03-16T08:02:52;14.02;;;4.57;;
68188;SDS011;66299;47.514;19.218;2023-03-16T08:05:23;14.95;;;5.30;;
68188;SDS011;66299;47.514;19.218;2023-03-16T08:07:53;14.30;;;5.15;;
68188;SDS011;66299;47.514;19.218;2023-03-16T08:13:34;14.27;;;4.85;;
68188;SDS011;66299;47.514;19.218;2023-03-16T08:16:02;15.45;;;5.28;;
68188;SDS011;66299;47.514;19.218;2023-03-16T08:18:36;13.20;;;5.00;;
68188;SDS011;66299;47.514;19.218;2023-03-16T08:21:05;13.93;;;4.47;;
68188;SDS011;66299;47.514;19.218;2023-03-16T08:23:34;13.63;;;5.13;;
68188;SDS011;66299;47.514;19.218;2023-03-16T08:26:03;13.05;;;5.00;;
68188;SDS011;66299;47.514;19.218;2023-03-16T08:28:36;14.07;;;4.90;;
68188;SDS011;66299;47.514;19.218;2023-03-16T08:31:05;10.27;;;4.07;;
68188;SDS011;66299;47.514;19.218;2023-03-16T08:33:38;11.45;;;4.63;;
68188;SDS011;66299;47.514;19.218;2023-03-16T08:36:07;13.90;;;4.90;;
68188;SDS011;66299;47.514;19.218;2023-03-16T08:38:37;11.20;;;4.45;;
68188;SDS011;66299;47.514;19.218;2023-03-16T08:41:06;12.77;;;5.00;;
68188;SDS011;66299;47.514;19.218;2023-03-16T08:43:37;12.50;;;4.60;;
68188;SDS011;66299;47.514;19.218;2023-03-16T08:46:08;10.65;;;3.83;;
68188;SDS011;66299;47.514;19.218;2023-03-16T08:48:39;13.95;;;4.80;;
68188;SDS011;66299;47.514;19.218;2023-03-16T08:51:08;15.10;;;5.15;;
68188;SDS011;66299;47.514;19.218;2023-03-16T08:53:37;16.45;;;5.15;;
68188;SDS011;66299;47.514;19.218;2023-03-16T08:56:06;13.32;;;5.13;;
68188;SDS011;66299;47.514;19.218;2023-03-16T08:58:38;10.50;;;4.28;;
68188;SDS011;66299;47.514;19.218;2023-03-16T09:01:11;11.15;;;4.63;;
68188;SDS011;66299;47.514;19.218;2023-03-16T09:06:13;12.80;;;4.10;;
68188;SDS011;66299;47.514;19.218;2023-03-16T09:08:43;11.63;;;4.32;;
68188;SDS011;66299;47.514;19.218;2023-03-16T09:11:14;9.43;;;3.72;;
68188;SDS011;66299;47.514;19.218;2023-03-16T09:13:46;11.13;;;4.32;;
68188;SDS011;66299;47.514;19.218;2023-03-16T09:16:18;14.30;;;4.78;;
68188;SDS011;66299;47.514;19.218;2023-03-16T09:18:51;12.52;;;4.88;;
68188;SDS011;66299;47.514;19.218;2023-03-16T09:21:25;12.15;;;4.22;;
68188;SDS011;66299;47.514;19.218;2023-03-16T09:23:54;12.30;;;4.50;;
68188;SDS011;66299;47.514;19.218;2023-03-16T09:26:22;11.85;;;3.92;;
68188;SDS011;66299;47.514;19.218;2023-03-16T09:28:52;12.73;;;4.50;;
68188;SDS011;66299;47.514;19.218;2023-03-16T09:31:21;12.48;;;4.50;;
68188;SDS011;66299;47.514;19.218;2023-03-16T09:33:50;15.40;;;4.25;;
68188;SDS011;66299;47.514;19.218;2023-03-16T09:36:19;11.00;;;3.85;;
68188;SDS011;66299;47.514;19.218;2023-03-16T09:38:48;11.18;;;4.00;;
68188;SDS011;66299;47.514;19.218;2023-03-16T09:41:21;12.52;;;4.20;;
68188;SDS011;66299;47.514;19.218;2023-03-16T09:44:10;10.90;;;4.20;;
68188;SDS011;66299;47.514;19.218;2023-03-16T09:46:50;12.25;;;3.90;;
68188;SDS011;66299;47.514;19.218;2023-03-16T09:49:22;11.43;;;4.38;;
68188;SDS011;66299;47.514;19.218;2023-03-16T09:51:54;12.02;;;4.40;;
68188;SDS011;66299;47.514;19.218;2023-03-16T09:54:33;10.07;;;4.25;;
68188;SDS011;66299;47.514;19.218;2023-03-16T09:57:13;11.45;;;4.30;;
68188;SDS011;66299;47.514;19.218;2023-03-16T09:59:47;12.00;;;4.53;;
68188;SDS011;66299;47.514;19.218;2023-03-16T10:02:26;12.70;;;4.82;;
68188;SDS011;66299;47.514;19.218;2023-03-16T10:05:09;15.77;;;4.75;;
68188;SDS011;66299;47.514;19.218;2023-03-16T10:07:42;11.80;;;4.25;;
68188;SDS011;66299;47.514;19.218;2023-03-16T10:10:20;11.85;;;4.20;;
68188;SDS011;66299;47.514;19.218;2023-03-16T10:12:59;11.35;;;4.10;;
68188;SDS011;66299;47.514;19.218;2023-03-16T10:15:29;11.23;;;3.90;;
68188;SDS011;66299;47.514;19.218;2023-03-16T10:18:03;11.32;;;4.43;;
68188;SDS011;66299;47.514;19.218;2023-03-16T10:20:39;10.75;;;3.97;;
68188;SDS011;66299;47.514;19.218;2023-03-16T10:23:12;11.88;;;4.88;;
68188;SDS011;66299;47.514;19.218;2023-03-16T10:25:45;11.90;;;4.43;;
68188;SDS011;66299;47.514;19.218;2023-03-16T10:28:15;10.48;;;4.50;;
68188;SDS011;66299;47.514;19.218;2023-03-16T10:30:48;11.30;;;4.47;;
68188;SDS011;66299;47.514;19.218;2023-03-16T10:33:19;10.70;;;4.30;;
68188;SDS011;66299;47.514;19.218;2023-03-16T10:35:52;11.40;;;3.75;;
68188;SDS011;66299;47.514;19.218;2023-03-16T10:38:30;10.32;;;4.00;;
68188;SDS011;66299;47.514;19.218;2023-03-16T10:41:13;11.00;;;3.92;;
68188;SDS011;66299;47.514;19.218;2023-03-16T10:43:49;10.48;;;3.72;;
68188;SDS011;66299;47.514;19.218;2023-03-16T10:46:20;11.40;;;3.95;;
68188;SDS011;66299;47.514;19.218;2023-03-16T10:51:22;10.88;;;3.97;;
68188;SDS011;66299;47.514;19.218;2023-03-16T10:53:52;11.55;;;3.95;;
68188;SDS011;66299;47.514;19.218;2023-03-16T10:56:48;11.18;;;3.75;;
68188;SDS011;66299;47.514;19.218;2023-03-16T10:59:25;10.88;;;3.90;;
68188;SDS011;66299;47.514;19.218;2023-03-16T11:02:07;10.77;;;3.72;;
68188;SDS011;66299;47.514;19.218;2023-03-16T11:04:43;10.30;;;3.90;;
68188;SDS011;66299;47.514;19.218;2023-03-16T11:07:16;9.60;;;3.47;;
68188;SDS011;66299;47.514;19.218;2023-03-16T11:09:48;13.10;;;4.10;;
68188;SDS011;66299;47.514;19.218;2023-03-16T11:12:22;11.40;;;3.58;;
68188;SDS011;66299;47.514;19.218;2023-03-16T11:14:54;9.93;;;3.50;;
68188;SDS011;66299;47.514;19.218;2023-03-16T11:17:37;10.13;;;3.50;;
68188;SDS011;66299;47.514;19.218;2023-03-16T11:20:11;11.65;;;3.78;;
68188;SDS011;66299;47.514;19.218;2023-03-16T11:22:44;10.80;;;3.20;;
68188;SDS011;66299;47.514;19.218;2023-03-16T11:25:15;10.63;;;3.28;;
68188;SDS011;66299;47.514;19.218;2023-03-16T11:27:50;9.43;;;3.50;;
68188;SDS011;66299;47.514;19.218;2023-03-16T11:30:23;9.55;;;3.22;;
68188;SDS011;66299;47.514;19.218;2023-03-16T11:32:59;9.60;;;3.42;;
68188;SDS011;66299;47.514;19.218;2023-03-16T11:35:32;10.52;;;3.53;;
68188;SDS011;66299;47.514;19.218;2023-03-16T11:38:25;12.13;;;3.22;;
68188;SDS011;66299;47.514;19.218;2023-03-16T11:41:00;11.85;;;3.40;;
68188;SDS011;66299;47.514;19.218;2023-03-16T11:46:19;9.82;;;3.22;;
68188;SDS011;66299;47.514;19.218;2023-03-16T11:49:00;9.63;;;3.38;;
68188;SDS011;66299;47.514;19.218;2023-03-16T11:51:51;10.02;;;3.38;;
68188;SDS011;66299;47.514;19.218;2023-03-16T11:54:30;10.00;;;3.10;;
68188;SDS011;66299;47.514;19.218;2023-03-16T11:57:17;9.25;;;3.00;;
68188;SDS011;66299;47.514;19.218;2023-03-16T12:00:02;9.30;;;3.10;;
68188;SDS011;66299;47.514;19.218;2023-03-16T12:02:43;9.98;;;2.80;;
68188;SDS011;66299;47.514;19.218;2023-03-16T12:05:38;8.68;;;2.85;;
68188;SDS011;66299;47.514;19.218;2023-03-16T12:08:18;8.65;;;2.97;;
68188;SDS011;66299;47.514;19.218;2023-03-16T12:10:55;9.05;;;2.70;;
68188;SDS011;66299;47.514;19.218;2023-03-16T12:13:36;8.05;;;2.80;;
68188;SDS011;66299;47.514;19.218;2023-03-16T12:16:18;11.48;;;2.75;;
68188;SDS011;66299;47.514;19.218;2023-03-16T12:19:05;7.25;;;2.40;;
68188;SDS011;66299;47.514;19.218;2023-03-16T12:21:40;8.80;;;2.42;;
68188;SDS011;66299;47.514;19.218;2023-03-16T12:24:13;7.90;;;2.40;;
68188;SDS011;66299;47.514;19.218;2023-03-16T12:26:45;9.35;;;2.78;;
68188;SDS011;66299;47.514;19.218;2023-03-16T12:29:17;8.32;;;2.50;;
68188;SDS011;66299;47.514;19.218;2023-03-16T12:32:00;7.20;;;2.10;;
68188;SDS011;66299;47.514;19.218;2023-03-16T12:34:35;9.00;;;2.40;;
68188;SDS011;66299;47.514;19.218;2023-03-16T12:40:03;8.02;;;2.67;;
68188;SDS011;66299;47.514;19.218;2023-03-16T12:45:37;8.82;;;2.50;;
68188;SDS011;66299;47.514;19.218;2023-03-16T12:48:33;8.63;;;2.67;;
68188;SDS011;66299;47.514;19.218;2023-03-16T12:51:05;9.73;;;2.50;;
68188;SDS011;66299;47.514;19.218;2023-03-16T12:53:44;9.55;;;2.88;;
68188;SDS011;66299;47.514;19.218;2023-03-16T12:56:14;7.88;;;2.55;;
68188;SDS011;66299;47.514;19.218;2023-03-16T12:58:45;8.55;;;2.13;;
68188;SDS011;66299;47.514;19.218;2023-03-16T13:01:16;7.60;;;2.38;;
68188;SDS011;66299;47.514;19.218;2023-03-16T13:03:57;9.10;;;2.55;;
68188;SDS011;66299;47.514;19.218;2023-03-16T13:06:30;9.90;;;2.40;;
68188;SDS011;66299;47.514;19.218;2023-03-16T13:09:04;7.97;;;2.33;;
68188;SDS011;66299;47.514;19.218;2023-03-16T13:11:40;7.22;;;2.40;;
68188;SDS011;66299;47.514;19.218;2023-03-16T13:14:13;10.32;;;2.67;;
68188;SDS011;66299;47.514;19.218;2023-03-16T13:16:43;7.32;;;2.30;;
68188;SDS011;66299;47.514;19.218;2023-03-16T13:19:22;7.05;;;2.10;;
68188;SDS011;66299;47.514;19.218;2023-03-16T13:22:01;10.18;;;2.33;;
68188;SDS011;66299;47.514;19.218;2023-03-16T13:24:54;7.18;;;2.20;;
68188;SDS011;66299;47.514;19.218;2023-03-16T13:27:27;8.93;;;2.20;;
68188;SDS011;66299;47.514;19.218;2023-03-16T13:29:59;7.93;;;2.22;;
68188;SDS011;66299;47.514;19.218;2023-03-16T13:32:31;8.93;;;2.40;;
68188;SDS011;66299;47.514;19.218;2023-03-16T13:35:01;7.82;;;2.35;;
68188;SDS011;66299;47.514;19.218;2023-03-16T13:37:32;7.03;;;2.20;;
68188;SDS011;66299;47.514;19.218;2023-03-16T13:40:03;7.68;;;2.40;;
68188;SDS011;66299;47.514;19.218;2023-03-16T13:42:46;7.88;;;2.10;;
68188;SDS011;66299;47.514;19.218;2023-03-16T13:45:19;8.82;;;2.40;;
68188;SDS011;66299;47.514;19.218;2023-03-16T13:47:49;8.05;;;2.20;;
68188;SDS011;66299;47.514;19.218;2023-03-16T13:50:19;6.88;;;2.10;;
68188;SDS011;66299;47.514;19.218;2023-03-16T13:52:55;6.63;;;2.30;;
68188;SDS011;66299;47.514;19.218;2023-03-16T13:55:31;7.90;;;2.30;;
68188;SDS011;66299;47.514;19.218;2023-03-16T13:58:01;8.95;;;2.47;;
68188;SDS011;66299;47.514;19.218;2023-03-16T14:00:31;6.75;;;2.05;;
68188;SDS011;66299;47.514;19.218;2023-03-16T14:03:07;7.32;;;2.20;;
68188;SDS011;66299;47.514;19.218;2023-03-16T14:05:42;6.03;;;2.00;;
68188;SDS011;66299;47.514;19.218;2023-03-16T14:08:14;7.68;;;2.10;;
68188;SDS011;66299;47.514;19.218;2023-03-16T14:10:49;7.03;;;2.17;;
68188;SDS011;66299;47.514;19.218;2023-03-16T14:13:35;7.85;;;2.25;;
68188;SDS011;66299;47.514;19.218;2023-03-16T14:16:07;8.45;;;2.40;;
68188;SDS011;66299;47.514;19.218;2023-03-16T14:18:41;7.57;;;2.15;;
68188;SDS011;66299;47.514;19.218;2023-03-16T14:21:13;8.98;;;2.10;;
68188;SDS011;66299;47.514;19.218;2023-03-16T14:23:44;10.00;;;2.10;;
68188;SDS011;66299;47.514;19.218;2023-03-16T14:26:16;7.18;;;2.40;;
68188;SDS011;66299;47.514;19.218;2023-03-16T14:28:56;6.90;;;2.03;;
68188;SDS011;66299;47.514;19.218;2023-03-16T14:31:31;9.02;;;2.40;;
68188;SDS011;66299;47.514;19.218;2023-03-16T14:34:03;8.77;;;2.33;;
68188;SDS011;66299;47.514;19.218;2023-03-16T14:36:35;8.80;;;2.38;;
68188;SDS011;66299;47.514;19.218;2023-03-16T14:39:11;6.50;;;2.22;;
68188;SDS011;66299;47.514;19.218;2023-03-16T14:41:42;7.32;;;2.28;;
68188;SDS011;66299;47.514;19.218;2023-03-16T14:44:15;7.13;;;2.20;;
68188;SDS011;66299;47.514;19.218;2023-03-16T14:46:47;8.25;;;2.33;;
68188;SDS011;66299;47.514;19.218;2023-03-16T14:49:18;7.38;;;2.30;;
68188;SDS011;66299;47.514;19.218;2023-03-16T14:51:50;7.03;;;2.10;;
68188;SDS011;66299;47.514;19.218;2023-03-16T14:54:20;8.47;;;2.70;;
68188;SDS011;66299;47.514;19.218;2023-03-16T14:56:51;7.38;;;2.10;;
68188;SDS011;66299;47.514;19.218;2023-03-16T14:59:21;8.85;;;2.67;;
68188;SDS011;66299;47.514;19.218;2023-03-16T15:01:50;9.18;;;2.38;;
68188;SDS011;66299;47.514;19.218;2023-03-16T15:04:23;9.48;;;2.35;;
68188;SDS011;66299;47.514;19.218;2023-03-16T15:06:55;9.07;;;2.67;;
68188;SDS011;66299;47.514;19.218;2023-03-16T15:09:27;12.82;;;2.60;;
68188;SDS011;66299;47.514;19.218;2023-03-16T15:12:07;9.15;;;3.20;;
68188;SDS011;66299;47.514;19.218;2023-03-16T15:14:41;10.05;;;2.90;;
68188;SDS011;66299;47.514;19.218;2023-03-16T15:17:42;7.10;;;2.25;;
68188;SDS011;66299;47.514;19.218;2023-03-16T15:23:59;11.90;;;2.50;;